Latest Weather Observations for Edinburgh

IDS60901

Issued at 9:01 am CST Tuesday 4 August 2015 (issued every 10 minutes, with the page automatically refreshed every 10 minutes)

About weather observations | Map of Adelaide area stations | Latest observations for Adelaide area | Other Formats
Station Details ID: 023083 Name: EDINBURGH RAAF Lat: -34.71 Lon: 138.62 Height: 16.54 m
Data from the previous 72 hours. | See also: Recent months at Edinburgh
Date/Time
CST
Tmp

°C
App
Tmp
°C
Dew
Point
°C
Rel
Hum
%
Delta-T

°C
Wind Press
QNH
hPa
Press
MSL
hPa
Rain
since
9 am
mm
Dir
 
Spd
km/h
Gust
km/h
Spd
kts
Gust
kts
04/09:00am 7.3 4.0 6.2 93 0.5 NNE 13 15 7 8 1028.3 1028.3 0.8
04/08:30am 6.8 3.4 5.9 94 0.4 NNE 13 17 7 9 1028.1 1028.1 0.8
04/08:00am 6.2 3.0 5.3 94 0.4 NNE 11 15 6 8 1027.9 1027.9 0.8
04/07:30am 5.1 1.7 4.2 94 0.4 NE 11 13 6 7 1027.7 1027.7 0.8
04/07:00am 5.7 2.4 4.8 94 0.4 ENE 11 13 6 7 1027.5 1027.5 0.8
04/06:30am 5.6 2.3 4.7 94 0.4 NE 11 13 6 7 1027.5 1027.5 0.8
04/06:22am 5.8 2.9 4.9 94 0.4 ENE 9 11 5 6 1027.5 1027.5 0.8
04/06:00am 5.0 2.4 4.0 93 0.4 ENE 7 9 4 5 1027.2 1027.2 0.8
04/05:39am 5.6 3.1 4.7 94 0.4 ENE 7 9 4 5 1027.3 1027.3 0.6
04/05:30am 5.8 2.9 4.9 94 0.4 ENE 9 11 5 6 1027.3 1027.3 0.6
04/05:00am 5.2 2.6 4.2 93 0.4 NE 7 9 4 5 1027.3 1027.3 0.6
04/04:54am 5.6 3.1 4.7 94 0.4 NE 7 7 4 4 1027.2 1027.2 0.6
04/04:49am 5.8 3.5 4.9 94 0.4 NE 6 7 3 4 1027.2 1027.2 0.6
04/04:30am 5.1 2.5 4.1 93 0.4 N 7 9 4 5 1027.1 1027.1 0.6
04/04:00am 5.9 3.4 4.9 93 0.4 NNE 7 7 4 4 1027.1 1027.1 0.6
04/03:30am 6.3 3.9 5.3 93 0.4 NE 7 9 4 5 1027.2 1027.2 0.6
04/03:00am 5.9 3.0 4.9 93 0.4 NNE 9 11 5 6 1027.4 1027.4 0.6
04/02:50am 6.3 3.5 5.3 93 0.4 NE 9 9 5 5 1027.4 1027.4 0.6
04/02:34am 6.7 4.0 5.7 93 0.4 ENE 9 11 5 6 1027.4 1027.4 0.6
04/02:30am 6.9 4.2 5.8 93 0.5 ENE 9 11 5 6 1027.5 1027.5 0.6
04/02:27am 7.0 4.4 5.9 93 0.5 E 9 11 5 6 1027.5 1027.5 0.6
04/02:19am 7.2 5.0 6.1 93 0.5 SE 7 11 4 6 1027.6 1027.6 0.6
04/02:07am 7.4 4.8 6.3 93 0.5 ESE 9 11 5 6 1027.7 1027.7 0.6
04/02:03am 7.4 4.8 6.3 93 0.5 E 9 11 5 6 1027.7 1027.7 0.6
04/02:00am 7.2 5.0 6.1 93 0.5 ENE 7 11 4 6 1027.7 1027.7 0.6
04/01:47am 7.1 4.9 6.0 93 0.5 NE 7 9 4 5 1027.6 1027.6 0.6
04/01:30am 6.7 4.4 5.5 92 0.5 NE 7 9 4 5 1027.5 1027.5 0.6
04/01:00am 6.7 4.4 5.5 92 0.5 NE 7 7 4 4 1027.7 1027.7 0.6
04/12:30am 7.1 5.0 5.7 91 0.6 NE 6 7 3 4 1027.8 1027.8 0.6
04/12:00am 7.4 6.5 5.9 90 0.7 CALM 0 0 0 0 1027.7 1027.7 0.6
 
Date/Time
CST
Tmp

°C
App
Tmp
°C
Dew
Point
°C
Rel
Hum
%
Delta-T

°C
Wind Press
QNH
hPa
Press
MSL
hPa
Rain
since
9 am
mm
Dir
 
Spd
km/h
Gust
km/h
Spd
kts
Gust
kts
03/11:30pm 7.8 6.6 6.3 90 0.7 N 2 6 1 3 1027.8 1027.8 0.6
03/11:00pm 7.9 7.0 6.0 88 0.9 CALM 0 0 0 0 1027.7 1027.7 0.6
03/10:30pm 8.3 7.4 5.9 85 1.1 CALM 0 0 0 0 1027.7 1027.7 0.6
03/10:00pm 8.7 6.2 6.7 87 0.9 SSE 9 13 5 7 1027.9 1027.9 0.6
03/09:30pm 8.3 7.1 6.6 89 0.8 S 2 6 1 3 1027.8 1027.8 0.6
03/09:00pm 8.9 7.1 7.0 88 0.9 S 6 7 3 4 1027.8 1027.8 0.6
03/08:30pm 9.1 6.0 7.4 89 0.8 SW 13 15 7 8 1027.7 1027.7 0.6
03/08:00pm 9.0 4.5 7.1 88 0.9 SW 20 26 11 14 1027.6 1027.6 0.4
03/07:30pm 9.1 5.6 7.2 88 0.9 SW 15 20 8 11 1027.5 1027.5 0.4
03/07:00pm 7.9 4.9 6.2 89 0.8 SW 11 15 6 8 1027.2 1027.2 0.2
03/06:30pm 8.2 5.2 6.0 86 1.0 SW 11 13 6 7 1027.0 1027.0 0.2
03/06:00pm 8.8 5.5 6.2 84 1.2 SW 13 15 7 8 1026.7 1026.7 0.2
03/05:30pm 9.1 6.1 6.2 82 1.3 SW 11 15 6 8 1026.7 1026.7 0.2
03/05:00pm 10.6 6.2 6.4 75 2.0 SW 19 24 10 13 1026.4 1026.4 0.2
03/04:30pm 11.0 4.9 6.4 73 2.1 SSW 28 32 15 17 1026.3 1026.3 0.2
03/04:00pm 11.8 6.1 6.9 72 2.3 SW 26 33 14 18 1026.0 1026.0 0.2
03/03:30pm 12.6 6.7 6.0 64 3.1 SSW 26 32 14 17 1025.8 1025.8 0.2
03/03:00pm 13.0 7.7 7.0 67 2.9 SW 24 32 13 17 1025.5 1025.5 0.2
03/02:30pm 11.3 6.3 6.6 73 2.2 SSW 22 33 12 18 1025.4 1025.4 0.2
03/02:00pm 12.5 6.3 6.3 66 2.9 SW 28 33 15 18 1025.1 1025.1 0.0
03/01:30pm 12.8 7.1 6.6 66 2.9 SW 26 33 14 18 1025.4 1025.4 0.0
03/01:00pm 13.1 7.5 7.3 68 2.8 SW 26 32 14 17 1025.6 1025.6 0.0
03/12:30pm 13.1 6.2 6.5 64 3.1 SW 32 37 17 20 1025.7 1025.7 0.0
03/12:00pm 13.5 7.4 8.1 70 2.7 SW 30 37 16 20 1025.9 1025.9 0.0
03/11:30am 12.8 7.1 6.6 66 2.9 SW 26 33 14 18 1026.0 1026.0 0.0
03/11:00am 12.3 6.1 8.0 75 2.1 WSW 30 37 16 20 1026.0 1026.0 0.0
03/10:30am 12.4 5.8 7.7 73 2.3 SW 32 41 17 22 1026.0 1026.0 0.0
03/10:00am 12.8 7.6 8.9 77 2.0 SW 26 33 14 18 1025.8 1025.8 0.0
03/09:30am 12.0 5.9 8.1 77 1.9 SW 30 35 16 19 1025.6 1025.6 0.0
03/09:00am 11.5 5.3 8.0 79 1.7 SW 30 39 16 21 1025.3 1025.3 1.4
03/08:30am 10.9 6.7 8.3 84 1.3 SW 20 26 11 14 1025.0 1025.0 1.4
03/08:00am 10.3 6.5 8.9 91 0.7 WSW 19 24 10 13 1024.6 1024.6 1.4
03/07:54am 10.3 6.9 9.1 92 0.6 WSW 17 24 9 13 1024.6 1024.6 1.4
03/07:34am 10.3 5.6 9.1 92 0.6 WSW 24 30 13 16 1024.5 1024.5 1.2
03/07:30am 10.2 5.8 9.0 92 0.6 WSW 22 30 12 16 1024.4 1024.4 1.2
03/07:00am 10.0 5.1 8.6 91 0.7 W 24 28 13 15 1023.9 1023.9 1.0
03/06:30am 9.4 5.2 7.3 87 1.0 WSW 19 22 10 12 1023.8 1023.8 1.0
03/06:17am 9.9 5.6 8.0 88 0.9 WSW 20 26 11 14 1023.6 1023.6 1.0
03/06:03am 10.0 2.9 8.1 88 0.9 WSW 35 56 19 30 1023.4 1023.4 1.0
03/06:00am 10.2 3.5 8.1 87 1.0 WSW 33 56 18 30 1023.5 1023.5 1.0
03/05:57am 10.4 5.0 8.0 85 1.2 WSW 26 52 14 28 1023.4 1023.4 1.0
03/05:30am 10.2 6.7 8.6 90 0.8 WSW 17 20 9 11 1023.2 1023.2 1.0
03/05:00am 10.2 5.7 8.6 90 0.8 WSW 22 28 12 15 1023.1 1023.1 1.0
03/04:46am 10.3 4.6 8.4 88 0.9 WSW 28 46 15 25 1023.1 1023.1 1.0
03/04:45am 10.3 4.6 8.4 88 0.9 WSW 28 46 15 25 1023.1 1023.1 1.0
03/04:30am 10.4 6.3 8.0 85 1.2 WSW 19 22 10 12 1023.0 1023.0 1.0
03/04:00am 10.2 4.7 7.4 83 1.3 SW 26 35 14 19 1022.7 1022.7 1.0
03/03:30am 10.8 6.8 8.9 88 0.9 SW 20 28 11 15 1022.9 1022.9 0.8
03/03:00am 10.7 5.9 8.8 88 0.9 WSW 24 32 13 17 1022.9 1022.9 0.8
03/02:30am 10.7 5.5 8.8 88 0.9 WSW 26 35 14 19 1022.8 1022.8 0.8
03/02:24am 10.6 5.4 8.7 88 0.9 WSW 26 33 14 18 1022.8 1022.8 0.8
03/02:13am 10.6 4.0 8.7 88 0.9 WSW 33 52 18 28 1022.7 1022.7 0.8
03/02:06am 10.8 4.3 8.9 88 0.9 WSW 33 52 18 28 1022.8 1022.8 0.6
03/02:01am 11.1 4.9 9.4 89 0.9 WSW 32 46 17 25 1022.8 1022.8 0.6
03/02:00am 11.1 4.9 9.4 89 0.9 WSW 32 46 17 25 1022.8 1022.8 0.6
03/01:57am 11.1 4.9 9.2 88 0.9 W 32 46 17 25 1022.8 1022.8 0.6
03/01:54am 11.1 5.6 9.2 88 0.9 W 28 46 15 25 1022.7 1022.7 0.6
03/01:30am 10.2 6.7 8.6 90 0.8 W 17 22 9 12 1022.9 1022.9 0.6
03/01:00am 11.0 5.0 8.8 86 1.1 W 30 39 16 21 1022.7 1022.7 0.6
03/12:30am 11.1 5.5 8.8 86 1.1 W 28 41 15 22 1022.9 1022.9 0.6
03/12:00am 11.3 6.1 8.9 85 1.2 W 26 33 14 18 1022.9 1022.9 0.6
 
Date/Time
CST
Tmp

°C
App
Tmp
°C
Dew
Point
°C
Rel
Hum
%
Delta-T

°C
Wind Press
QNH
hPa
Press
MSL
hPa
Rain
since
9 am
mm
Dir
 
Spd
km/h
Gust
km/h
Spd
kts
Gust
kts
02/11:30pm 11.2 6.8 8.9 86 1.1 W 22 28 12 15 1022.8 1022.8 0.6
02/11:00pm 10.2 6.2 8.1 87 1.0 W 19 22 10 12 1022.8 1022.8 0.6
02/10:30pm 9.9 6.2 8.0 88 0.9 W 17 20 9 11 1022.9 1022.9 0.6
02/10:00pm 10.3 6.1 8.2 87 1.0 W 20 26 11 14 1022.9 1022.9 0.6
02/09:30pm 10.9 6.3 8.3 84 1.3 W 22 28 12 15 1022.9 1022.9 0.6
02/09:00pm 10.8 5.9 8.4 85 1.2 W 24 30 13 16 1022.7 1022.7 0.6
02/08:30pm 10.8 5.9 8.6 86 1.1 WSW 24 30 13 16 1022.7 1022.7 0.6
02/08:00pm 10.9 6.1 8.8 87 1.0 WSW 24 30 13 16 1022.4 1022.4 0.6
02/07:41pm 10.9 5.3 8.7 86 1.1 WSW 28 39 15 21 1022.3 1022.3 0.6
02/07:30pm 10.7 4.3 8.6 87 1.0 WSW 32 46 17 25 1022.1 1022.1 0.6
02/07:21pm 10.9 5.3 8.8 87 1.0 W 28 48 15 26 1022.1 1022.1 0.4
02/07:20pm 10.9 5.7 8.8 87 1.0 W 26 48 14 26 1022.1 1022.1 0.4
02/07:00pm 11.2 7.3 9.5 89 0.9 W 20 28 11 15 1021.9 1021.9 0.0
02/06:30pm 10.4 7.2 8.5 88 0.9 W 15 19 8 10 1021.7 1021.7 0.0
02/06:00pm 11.7 7.8 9.6 87 1.1 WSW 20 26 11 14 1021.4 1021.4 0.0
02/05:30pm 11.8 8.1 9.4 85 1.2 W 19 22 10 12 1021.1 1021.1 0.0
02/05:00pm 11.9 7.5 8.9 82 1.5 W 22 28 12 15 1020.8 1020.8 0.0
02/04:30pm 12.4 6.9 9.1 80 1.7 W 28 35 15 19 1020.6 1020.6 0.0
02/04:00pm 12.6 6.4 9.2 80 1.7 W 32 41 17 22 1020.5 1020.5 0.0
02/03:30pm 12.6 7.0 10.1 85 1.3 W 30 41 16 22 1020.6 1020.6 0.0
02/03:12pm 12.0 5.1 9.0 82 1.5 W 35 50 19 27 1020.5 1020.5 0.0
02/03:10pm 12.6 6.2 8.7 77 1.9 W 32 50 17 27 1020.5 1020.5 0.0
02/03:00pm 13.4 6.9 8.3 71 2.5 W 32 39 17 21 1020.3 1020.3 0.0
02/02:30pm 13.5 7.2 8.8 73 2.4 W 32 41 17 22 1020.1 1020.1 0.0
02/02:00pm 13.2 6.9 8.9 75 2.2 W 32 43 17 23 1020.0 1020.0 0.0
02/01:34pm 13.3 9.0 9.2 76 2.1 W 22 28 12 15 1020.2 1020.2 0.0
02/01:30pm 13.0 8.4 9.8 81 1.6 W 24 32 13 17 1020.3 1020.3 0.0
02/01:20pm 11.9 5.5 8.6 80 1.6 W 32 37 17 20 1020.3 1020.3 0.0
02/01:00pm 13.8 7.3 9.0 73 2.4 W 33 41 18 22 1020.3 1020.3 0.0
02/12:30pm 12.6 6.0 7.9 73 2.3 W 32 41 17 22 1020.6 1020.6 0.0
02/12:00pm 13.3 7.3 8.8 74 2.3 W 30 37 16 20 1020.7 1020.7 0.0
02/11:30am 12.8 6.2 7.7 71 2.5 W 32 39 17 21 1020.9 1020.9 0.0
02/11:00am 12.8 7.4 7.9 72 2.4 W 26 33 14 18 1021.1 1021.1 0.0
02/10:30am 11.7 5.3 7.0 73 2.2 W 30 37 16 20 1021.1 1021.1 0.0
02/10:00am 11.8 6.1 6.9 72 2.3 W 26 32 14 17 1021.0 1021.0 0.0
02/09:30am 11.5 6.1 6.4 71 2.4 W 24 30 13 16 1020.7 1020.7 0.0
02/09:00am 11.1 7.3 7.4 78 1.8 W 17 20 9 11 1020.4 1020.4 11.8
02/08:30am 9.9 6.4 7.3 84 1.2 W 15 19 8 10 1020.4 1020.4 11.8
02/08:00am 8.9 4.4 6.2 83 1.2 W 19 24 10 13 1020.3 1020.3 11.8
02/07:30am 9.3 4.8 6.9 85 1.1 WSW 20 26 11 14 1019.9 1019.9 11.8
02/07:00am 8.6 5.9 7.5 93 0.5 WNW 11 13 6 7 1019.6 1019.6 11.8
02/06:30am 8.1 6.3 7.0 93 0.5 NW 6 7 3 4 1019.2 1019.2 11.8
02/06:00am 8.1 5.7 7.0 93 0.5 NW 9 13 5 7 1018.8 1018.8 11.8
02/05:30am 8.0 6.1 6.9 93 0.5 NNW 6 6 3 3 1018.7 1018.7 11.8
02/05:00am 7.7 5.8 6.8 94 0.4 N 6 7 3 4 1018.8 1018.8 11.8
02/04:30am 7.6 5.7 6.7 94 0.4 NE 6 7 3 4 1018.6 1018.6 11.8
02/04:02am 7.6 5.5 6.7 94 0.4 NNE 7 9 4 5 1018.6 1018.6 11.8
02/04:00am 7.6 5.5 6.7 94 0.4 NNE 7 9 4 5 1018.6 1018.6 11.8
02/03:30am 7.4 5.2 6.3 93 0.5 NE 7 9 4 5 1018.8 1018.8 11.8
02/03:23am 7.3 5.3 6.2 93 0.5 NE 6 9 3 5 1018.7 1018.7 11.8
02/03:00am 7.2 5.0 6.1 93 0.5 N 7 9 4 5 1018.9 1018.9 11.8
02/02:30am 7.8 7.0 6.7 93 0.5 CALM 0 7 0 4 1018.9 1018.9 11.8
02/02:00am 8.0 7.3 6.8 92 0.6 CALM 0 0 0 0 1019.0 1019.0 11.8
02/01:30am 8.1 7.4 6.9 92 0.6 CALM 0 0 0 0 1019.3 1019.3 11.8
02/01:00am 8.4 7.8 7.2 92 0.6 CALM 0 0 0 0 1019.1 1019.1 11.6
02/12:30am 8.6 8.0 7.4 92 0.6 CALM 0 0 0 0 1019.4 1019.4 11.6
02/12:00am 8.6 8.0 7.4 92 0.6 CALM 0 0 0 0 1019.6 1019.6 11.6
 
Date/Time
CST
Tmp

°C
App
Tmp
°C
Dew
Point
°C
Rel
Hum
%
Delta-T

°C
Wind Press
QNH
hPa
Press
MSL
hPa
Rain
since
9 am
mm
Dir
 
Spd
km/h
Gust
km/h
Spd
kts
Gust
kts
01/11:30pm 8.6 8.0 7.4 92 0.6 CALM 0 2 0 1 1019.4 1019.4 11.6
01/11:00pm 8.7 5.6 7.3 91 0.7 SW 13 15 7 8 1019.2 1019.2 11.4
01/10:30pm 8.8 5.0 7.4 91 0.7 SSW 17 20 9 11 1019.1 1019.1 10.8
01/10:28pm 8.8 5.0 7.4 91 0.7 SW 17 20 9 11 1019.1 1019.1 10.8
01/10:22pm 8.8 5.0 7.4 91 0.7 SW 17 20 9 11 1019.0 1019.0 10.6
01/10:04pm 9.4 8.2 8.0 91 0.7 S 4 6 2 3 1018.7 1018.7 9.8
01/10:00pm 9.4 8.2 8.0 91 0.7 S 4 6 2 3 1018.6 1018.6 9.6
01/09:49pm 9.4 8.6 8.0 91 0.7 S 2 4 1 2 1018.7 1018.7 9.2
01/09:30pm 9.2 7.6 7.8 91 0.7 WSW 6 7 3 4 1018.6 1018.6 8.6
01/09:12pm 9.6 8.0 8.2 91 0.7 WSW 6 7 3 4 1018.5 1018.5 7.8
01/09:00pm 9.6 8.4 8.0 90 0.8 SSE 4 7 2 4 1018.3 1018.3 7.6
01/08:32pm 9.9 7.4 8.3 90 0.8 SSW 11 15 6 8 1018.0 1018.0 5.8
01/08:30pm 9.8 7.3 8.1 89 0.8 SSW 11 15 6 8 1018.0 1018.0 5.6
01/08:00pm 10.0 8.3 8.3 89 0.8 S 7 11 4 6 1018.0 1018.0 4.6
01/07:30pm 10.2 8.7 8.3 88 0.9 ESE 6 9 3 5 1017.6 1017.6 4.6
01/07:00pm 10.4 7.5 8.3 87 1.0 SSW 13 17 7 9 1017.8 1017.8 4.4
01/06:30pm 10.6 9.0 8.2 85 1.2 S 6 9 3 5 1017.3 1017.3 4.4
01/06:00pm 10.8 9.3 8.4 85 1.2 SSE 6 7 3 4 1016.9 1016.9 4.4
01/05:30pm 11.1 9.6 8.5 84 1.3 ESE 6 9 3 5 1016.8 1016.8 4.4
01/05:00pm 11.1 9.7 9.0 87 1.0 SE 6 9 3 5 1016.4 1016.4 4.4
01/04:30pm 11.2 9.6 8.9 86 1.1 S 7 11 4 6 1016.2 1016.2 4.4
01/04:00pm 11.4 9.6 9.5 88 1.0 S 9 13 5 7 1016.1 1016.1 4.4
01/03:30pm 11.2 9.6 8.9 86 1.1 ESE 7 9 4 5 1015.6 1015.6 4.4
01/03:00pm 11.2 9.3 9.1 87 1.0 S 9 15 5 8 1016.1 1016.1 4.4
01/02:30pm 11.3 9.9 9.4 88 1.0 S 7 9 4 5 1015.9 1015.9 4.4
01/02:00pm 11.0 9.1 9.1 88 0.9 S 9 11 5 6 1015.9 1015.9 4.4
01/01:30pm 11.7 10.6 10.1 90 0.8 WSW 6 15 3 8 1017.0 1017.0 4.4
01/01:00pm 11.5 9.4 9.9 90 0.8 WSW 11 15 6 8 1018.2 1018.2 4.0
01/12:30pm 11.3 9.9 9.7 90 0.8 SSE 7 11 4 6 1016.6 1016.6 3.4
01/12:09pm 11.2 8.3 9.8 91 0.7 SSW 15 19 8 10 1017.2 1017.2 3.4
01/12:06pm 11.3 8.1 10.0 92 0.7 SSW 17 22 9 12 1017.3 1017.3 3.4
01/12:00pm 11.1 7.5 9.7 91 0.7 SW 19 24 10 13 1018.0 1018.0 3.4
01/11:55am 11.2 7.0 9.8 91 0.7 WSW 22 32 12 17 1018.7 1018.7 3.2
01/11:42am 11.8 9.1 10.4 91 0.7 WNW 15 26 8 14 1019.2 1019.2 2.8
01/11:30am 11.7 10.1 10.3 91 0.7 NNE 9 11 5 6 1017.1 1017.1 2.6
01/11:00am 11.5 9.5 10.2 92 0.7 ENE 11 15 6 8 1016.5 1016.5 2.6
01/10:30am 11.0 10.9 9.6 91 0.7 CALM 0 6 0 3 1017.7 1017.7 1.8
01/10:00am 11.2 9.1 9.8 91 0.7 SSW 11 15 6 8 1017.5 1017.5 1.4
01/09:30am 11.0 7.8 9.9 93 0.6 SSW 17 24 9 13 1017.0 1017.0 1.2

Latest Capital City Observations: Canberra | Sydney | Melbourne | Brisbane | Adelaide | Perth | Hobart | Darwin

Other Formats:

Comma delimited format used in spreadsheet applications
http://www.bom.gov.au/fwo/IDS60901/IDS60901.95676.axf

JavaScript Object Notation format (JSON) in row-major order
http://www.bom.gov.au/fwo/IDS60901/IDS60901.95676.json